< < Back
Terminal Aerodrome Forecast


Current Version              Previous Versions:   1  2  3  4  5  6  7  8  9  

Terminal Aerodrome Forecast

292
FTAK31 PAJN 220100 AAA
TAFAHN
TAF AMD
PAHN 220104Z 2201/2224 29005KT 5SM -SN BR SCT008 OVC025
      TEMPO 2201/2205 00000KT 2SM BR BKN008 OVC015
     FM220600 VRB03KT 6SM -SNRA BR SCT015 OVC020
     FM221600 32008KT P6SM VCSH OVC030
      AMD LTD TO CLD VIS AND WIND=



Latest METAR

455
SAUS70 KWBC 220300
MTRAHN
METAR KAHN 220251Z AUTO 09005KT 10SM CLR 04/M02 A3042 RMK AO2 SLPNO
T00441017 51012


USA.gov is the U.S. government's official web portal to all federal, state and local government web resources and services.